메인 페이지
METAR-TAF:

METAR-TAF

공항 :

김해국제공항

부산광역, 대한민국

위도: 35-11N, 경도: 128-56E, 고도: 4m

현재 날씨관측

예보는 56분 전, 08:00시(UTC)에 발표되었습니다.
북동12kt
온도 22°C
습도 57%
기압 1016 hPa
시정 10km 이상
고도 4000ft 상공 구름 조금
고도 20000ft 상공 구름 많음

METAR: RKPK 210800Z 05012KT 9999 FEW040 BKN200 22/13 Q1016 NOSIG

시각: 17:56 (08:56 UTC)

예보

예보는 3 시간 56분 전, 05:00시(UTC)에 발표되었습니다.
예보 대상 시간: 21일 06시부터 22일 12시까지 (UTC)
북북동8kt
시정 10km 이상
고도 4000ft 상공 구름 보통
고도 20000ft 상공 구름 많음
전환 중
22일 00시부터 22일 01시까지 (UTC)
동남동8kt
전환 중
22일 10시부터 22일 11시까지 (UTC)
남남동8kt
시정 10km 이상
1500m 미만 상공 구름 및 적란운 없음

TAF: RKPK 210500Z 2106/2212 03008KT 9999 SCT040 BKN200 TN15/2121Z TX24/2206Z BECMG 2200/2201 12008KT BECMG 2210/2211 15008KT CAVOK

4,000개 이상의 공항 관측 자료 및 예보 (METAR 및 TAF 보고).

지도상에서 검색 가능한 기상관측소가 노란 점과 빨간 점으로 표시되어 있습니다.

기상관측소 명을 보려면 표시 위로 마우스를 이동하세요.

날씨 관측과 예보를 보려면 클릭하세요.

지도 변경 : 확대하려면 엑스 표시가 있는 녹색 버튼, 축소하려면 빼기 표시가 있는 녹색 버튼, 다음 페이지의 지도를 보려면 녹색 화살표를 클릭하세요.


METAR-TAF: